sensor_id;sensor_type;location;lat;lon;timestamp;pressure;altitude;pressure_sealevel;temperature
65823;BMP180;52585;47.566;19.056;2023-02-22T00:00:44;100314.80;;;10.10
65823;BMP180;52585;47.566;19.056;2023-02-22T00:05:58;100314.80;;;10.10
65823;BMP180;52585;47.566;19.056;2023-02-22T00:08:31;100314.60;;;10.10
65823;BMP180;52585;47.566;19.056;2023-02-22T00:11:00;100311.40;;;10.10
65823;BMP180;52585;47.566;19.056;2023-02-22T00:13:27;100313.20;;;10.10
65823;BMP180;52585;47.566;19.056;2023-02-22T00:15:57;100313.00;;;10.08
65823;BMP180;52585;47.566;19.056;2023-02-22T00:18:25;100311.60;;;10.08
65823;BMP180;52585;47.566;19.056;2023-02-22T00:20:58;100313.00;;;10.08
65823;BMP180;52585;47.566;19.056;2023-02-22T00:23:26;100311.40;;;10.06
65823;BMP180;52585;47.566;19.056;2023-02-22T00:25:53;100316.60;;;10.08
65823;BMP180;52585;47.566;19.056;2023-02-22T00:28:20;100318.60;;;10.06
65823;BMP180;52585;47.566;19.056;2023-02-22T00:30:49;100319.00;;;10.00
65823;BMP180;52585;47.566;19.056;2023-02-22T00:33:16;100313.80;;;10.00
65823;BMP180;52585;47.566;19.056;2023-02-22T00:35:44;100319.40;;;10.00
65823;BMP180;52585;47.566;19.056;2023-02-22T00:38:11;100321.20;;;10.00
65823;BMP180;52585;47.566;19.056;2023-02-22T00:40:37;100318.60;;;9.94
65823;BMP180;52585;47.566;19.056;2023-02-22T00:43:05;100327.40;;;9.96
65823;BMP180;52585;47.566;19.056;2023-02-22T00:45:34;100326.00;;;9.90
65823;BMP180;52585;47.566;19.056;2023-02-22T00:48:04;100328.80;;;9.90
65823;BMP180;52585;47.566;19.056;2023-02-22T00:50:31;100329.20;;;9.90
65823;BMP180;52585;47.566;19.056;2023-02-22T00:53:00;100331.60;;;9.90
65823;BMP180;52585;47.566;19.056;2023-02-22T00:55:30;100335.80;;;9.80
65823;BMP180;52585;47.566;19.056;2023-02-22T00:57:57;100331.00;;;9.80
65823;BMP180;52585;47.566;19.056;2023-02-22T01:00:36;100324.60;;;9.80
65823;BMP180;52585;47.566;19.056;2023-02-22T01:03:08;100328.60;;;9.78
65823;BMP180;52585;47.566;19.056;2023-02-22T01:05:35;100326.80;;;9.70
65823;BMP180;52585;47.566;19.056;2023-02-22T01:08:06;100327.80;;;9.70
65823;BMP180;52585;47.566;19.056;2023-02-22T01:10:33;100322.80;;;9.70
65823;BMP180;52585;47.566;19.056;2023-02-22T01:13:00;100325.40;;;9.70
65823;BMP180;52585;47.566;19.056;2023-02-22T01:15:29;100318.80;;;9.62
65823;BMP180;52585;47.566;19.056;2023-02-22T01:17:56;100318.60;;;9.60
65823;BMP180;52585;47.566;19.056;2023-02-22T01:20:24;100318.80;;;9.60
65823;BMP180;52585;47.566;19.056;2023-02-22T01:22:54;100320.80;;;9.60
65823;BMP180;52585;47.566;19.056;2023-02-22T01:25:27;100320.40;;;9.60
65823;BMP180;52585;47.566;19.056;2023-02-22T01:27:55;100319.80;;;9.60
65823;BMP180;52585;47.566;19.056;2023-02-22T01:30:25;100323.00;;;9.62
65823;BMP180;52585;47.566;19.056;2023-02-22T01:32:52;100319.60;;;9.70
65823;BMP180;52585;47.566;19.056;2023-02-22T01:35:26;100316.40;;;9.70
65823;BMP180;52585;47.566;19.056;2023-02-22T01:37:52;100316.80;;;9.70
65823;BMP180;52585;47.566;19.056;2023-02-22T01:40:26;100315.00;;;9.70
65823;BMP180;52585;47.566;19.056;2023-02-22T01:42:53;100321.40;;;9.78
65823;BMP180;52585;47.566;19.056;2023-02-22T01:45:42;100321.80;;;9.72
65823;BMP180;52585;47.566;19.056;2023-02-22T01:48:28;100322.00;;;9.70
65823;BMP180;52585;47.566;19.056;2023-02-22T01:53:54;100318.40;;;9.72
65823;BMP180;52585;47.566;19.056;2023-02-22T01:56:24;100313.80;;;9.72
65823;BMP180;52585;47.566;19.056;2023-02-22T01:59:01;100314.40;;;9.72
65823;BMP180;52585;47.566;19.056;2023-02-22T02:01:28;100315.80;;;9.80
65823;BMP180;52585;47.566;19.056;2023-02-22T02:03:57;100309.60;;;9.80
65823;BMP180;52585;47.566;19.056;2023-02-22T02:06:27;100305.40;;;9.80
65823;BMP180;52585;47.566;19.056;2023-02-22T02:09:16;100306.00;;;9.80
65823;BMP180;52585;47.566;19.056;2023-02-22T02:11:45;100307.00;;;9.80
65823;BMP180;52585;47.566;19.056;2023-02-22T02:14:12;100305.40;;;9.82
65823;BMP180;52585;47.566;19.056;2023-02-22T02:16:46;100310.20;;;9.80
65823;BMP180;52585;47.566;19.056;2023-02-22T02:34:57;100304.00;;;9.80
65823;BMP180;52585;47.566;19.056;2023-02-22T02:38:18;100297.60;;;9.80
65823;BMP180;52585;47.566;19.056;2023-02-22T02:41:26;100301.40;;;9.80
65823;BMP180;52585;47.566;19.056;2023-02-22T02:47:13;100304.60;;;9.80
65823;BMP180;52585;47.566;19.056;2023-02-22T02:50:15;100308.60;;;9.80
65823;BMP180;52585;47.566;19.056;2023-02-22T02:52:36;100305.60;;;9.80
65823;BMP180;52585;47.566;19.056;2023-02-22T02:55:05;100306.20;;;9.80
65823;BMP180;52585;47.566;19.056;2023-02-22T02:57:32;100302.20;;;9.80
65823;BMP180;52585;47.566;19.056;2023-02-22T02:59:58;100306.80;;;9.80
65823;BMP180;52585;47.566;19.056;2023-02-22T03:02:49;100306.00;;;9.80
65823;BMP180;52585;47.566;19.056;2023-02-22T03:08:42;100307.80;;;9.80
65823;BMP180;52585;47.566;19.056;2023-02-22T03:12:04;100306.60;;;9.80
65823;BMP180;52585;47.566;19.056;2023-02-22T03:23:12;100307.20;;;9.80
65823;BMP180;52585;47.566;19.056;2023-02-22T03:25:54;100306.60;;;9.80
65823;BMP180;52585;47.566;19.056;2023-02-22T03:28:25;100310.80;;;9.80
65823;BMP180;52585;47.566;19.056;2023-02-22T03:31:09;100306.00;;;9.80
65823;BMP180;52585;47.566;19.056;2023-02-22T03:33:44;100313.60;;;9.80
65823;BMP180;52585;47.566;19.056;2023-02-22T03:36:24;100309.60;;;9.80
65823;BMP180;52585;47.566;19.056;2023-02-22T03:38:53;100319.20;;;9.82
65823;BMP180;52585;47.566;19.056;2023-02-22T03:41:24;100316.80;;;9.90
65823;BMP180;52585;47.566;19.056;2023-02-22T03:43:58;100314.00;;;9.90
65823;BMP180;52585;47.566;19.056;2023-02-22T03:46:27;100310.40;;;9.90
65823;BMP180;52585;47.566;19.056;2023-02-22T03:49:54;100311.00;;;9.90
65823;BMP180;52585;47.566;19.056;2023-02-22T03:52:21;100318.40;;;9.88
65823;BMP180;52585;47.566;19.056;2023-02-22T03:54:53;100317.40;;;9.86
65823;BMP180;52585;47.566;19.056;2023-02-22T03:57:28;100318.40;;;9.80
65823;BMP180;52585;47.566;19.056;2023-02-22T03:59:56;100324.80;;;9.80
65823;BMP180;52585;47.566;19.056;2023-02-22T04:02:22;100327.60;;;9.80
65823;BMP180;52585;47.566;19.056;2023-02-22T04:04:49;100325.80;;;9.80
65823;BMP180;52585;47.566;19.056;2023-02-22T04:07:15;100327.00;;;9.80
65823;BMP180;52585;47.566;19.056;2023-02-22T04:09:41;100325.00;;;9.80
65823;BMP180;52585;47.566;19.056;2023-02-22T04:12:07;100323.80;;;9.82
65823;BMP180;52585;47.566;19.056;2023-02-22T04:14:33;100334.60;;;9.90
65823;BMP180;52585;47.566;19.056;2023-02-22T04:16:59;100335.60;;;9.86
65823;BMP180;52585;47.566;19.056;2023-02-22T04:19:25;100335.20;;;9.90
65823;BMP180;52585;47.566;19.056;2023-02-22T04:21:50;100339.40;;;9.88
65823;BMP180;52585;47.566;19.056;2023-02-22T04:24:16;100335.00;;;9.90
65823;BMP180;52585;47.566;19.056;2023-02-22T04:26:42;100336.00;;;9.86
65823;BMP180;52585;47.566;19.056;2023-02-22T04:29:08;100338.60;;;9.80
65823;BMP180;52585;47.566;19.056;2023-02-22T04:31:33;100338.20;;;9.80
65823;BMP180;52585;47.566;19.056;2023-02-22T04:34:00;100338.80;;;9.80
65823;BMP180;52585;47.566;19.056;2023-02-22T04:36:27;100337.80;;;9.80
65823;BMP180;52585;47.566;19.056;2023-02-22T04:38:53;100333.20;;;9.80
65823;BMP180;52585;47.566;19.056;2023-02-22T04:41:19;100336.80;;;9.80
65823;BMP180;52585;47.566;19.056;2023-02-22T04:43:45;100333.20;;;9.76
65823;BMP180;52585;47.566;19.056;2023-02-22T04:46:12;100333.60;;;9.74
65823;BMP180;52585;47.566;19.056;2023-02-22T04:48:38;100334.60;;;9.70
65823;BMP180;52585;47.566;19.056;2023-02-22T04:51:04;100339.20;;;9.72
65823;BMP180;52585;47.566;19.056;2023-02-22T04:53:30;100340.40;;;9.72
65823;BMP180;52585;47.566;19.056;2023-02-22T04:55:56;100339.20;;;9.78
65823;BMP180;52585;47.566;19.056;2023-02-22T04:58:22;100338.20;;;9.70
65823;BMP180;52585;47.566;19.056;2023-02-22T05:00:49;100339.80;;;9.70
65823;BMP180;52585;47.566;19.056;2023-02-22T05:03:15;100339.80;;;9.70
65823;BMP180;52585;47.566;19.056;2023-02-22T05:05:41;100339.40;;;9.70
65823;BMP180;52585;47.566;19.056;2023-02-22T05:08:06;100342.40;;;9.60
65823;BMP180;52585;47.566;19.056;2023-02-22T05:10:32;100338.40;;;9.60
65823;BMP180;52585;47.566;19.056;2023-02-22T05:12:57;100341.00;;;9.60
65823;BMP180;52585;47.566;19.056;2023-02-22T05:15:23;100338.20;;;9.60
65823;BMP180;52585;47.566;19.056;2023-02-22T05:17:51;100337.40;;;9.60
65823;BMP180;52585;47.566;19.056;2023-02-22T05:20:28;100341.00;;;9.60
65823;BMP180;52585;47.566;19.056;2023-02-22T05:22:56;100340.20;;;9.58
65823;BMP180;52585;47.566;19.056;2023-02-22T05:25:23;100342.00;;;9.60
65823;BMP180;52585;47.566;19.056;2023-02-22T05:28:03;100342.40;;;9.58
65823;BMP180;52585;47.566;19.056;2023-02-22T05:30:34;100345.60;;;9.50
65823;BMP180;52585;47.566;19.056;2023-02-22T05:33:00;100349.20;;;9.50
65823;BMP180;52585;47.566;19.056;2023-02-22T05:35:27;100353.60;;;9.50
65823;BMP180;52585;47.566;19.056;2023-02-22T05:37:54;100358.80;;;9.50
65823;BMP180;52585;47.566;19.056;2023-02-22T05:40:25;100360.40;;;9.50
65823;BMP180;52585;47.566;19.056;2023-02-22T05:42:52;100360.80;;;9.50
65823;BMP180;52585;47.566;19.056;2023-02-22T05:45:22;100368.00;;;9.44
65823;BMP180;52585;47.566;19.056;2023-02-22T05:47:49;100366.60;;;9.40
65823;BMP180;52585;47.566;19.056;2023-02-22T05:50:15;100372.80;;;9.40
65823;BMP180;52585;47.566;19.056;2023-02-22T05:52:41;100383.40;;;9.40
65823;BMP180;52585;47.566;19.056;2023-02-22T05:55:09;100391.00;;;9.40
65823;BMP180;52585;47.566;19.056;2023-02-22T05:57:35;100399.60;;;9.40
65823;BMP180;52585;47.566;19.056;2023-02-22T06:00:05;100401.60;;;9.40
65823;BMP180;52585;47.566;19.056;2023-02-22T06:02:33;100409.40;;;9.40
65823;BMP180;52585;47.566;19.056;2023-02-22T06:04:59;100413.00;;;9.40
65823;BMP180;52585;47.566;19.056;2023-02-22T06:07:25;100419.60;;;9.40
65823;BMP180;52585;47.566;19.056;2023-02-22T06:09:52;100417.20;;;9.40
65823;BMP180;52585;47.566;19.056;2023-02-22T06:12:18;100418.00;;;9.40
65823;BMP180;52585;47.566;19.056;2023-02-22T06:14:44;100419.60;;;9.40
65823;BMP180;52585;47.566;19.056;2023-02-22T06:17:13;100417.80;;;9.40
65823;BMP180;52585;47.566;19.056;2023-02-22T06:19:39;100421.60;;;9.40
65823;BMP180;52585;47.566;19.056;2023-02-22T06:22:15;100421.00;;;9.44
65823;BMP180;52585;47.566;19.056;2023-02-22T06:24:41;100421.40;;;9.50
65823;BMP180;52585;47.566;19.056;2023-02-22T06:27:07;100425.60;;;9.50
65823;BMP180;52585;47.566;19.056;2023-02-22T06:29:33;100429.60;;;9.50
65823;BMP180;52585;47.566;19.056;2023-02-22T06:31:58;100430.20;;;9.60
65823;BMP180;52585;47.566;19.056;2023-02-22T06:34:24;100434.80;;;9.60
65823;BMP180;52585;47.566;19.056;2023-02-22T06:36:49;100433.20;;;9.60
65823;BMP180;52585;47.566;19.056;2023-02-22T06:39:16;100432.20;;;9.62
65823;BMP180;52585;47.566;19.056;2023-02-22T06:41:45;100433.00;;;9.70
65823;BMP180;52585;47.566;19.056;2023-02-22T06:44:13;100436.60;;;9.70
65823;BMP180;52585;47.566;19.056;2023-02-22T06:46:39;100429.80;;;9.70
65823;BMP180;52585;47.566;19.056;2023-02-22T06:49:05;100433.80;;;9.72
65823;BMP180;52585;47.566;19.056;2023-02-22T06:51:35;100435.40;;;9.80
65823;BMP180;52585;47.566;19.056;2023-02-22T06:54:02;100433.80;;;9.80
65823;BMP180;52585;47.566;19.056;2023-02-22T06:56:28;100432.00;;;9.88
65823;BMP180;52585;47.566;19.056;2023-02-22T06:58:54;100430.00;;;9.90
65823;BMP180;52585;47.566;19.056;2023-02-22T07:01:19;100430.60;;;9.90
65823;BMP180;52585;47.566;19.056;2023-02-22T07:03:47;100433.00;;;9.98
65823;BMP180;52585;47.566;19.056;2023-02-22T07:06:13;100437.40;;;10.00
65823;BMP180;52585;47.566;19.056;2023-02-22T07:08:39;100443.80;;;10.00
65823;BMP180;52585;47.566;19.056;2023-02-22T07:11:04;100442.00;;;10.00
65823;BMP180;52585;47.566;19.056;2023-02-22T07:13:30;100440.00;;;10.08
65823;BMP180;52585;47.566;19.056;2023-02-22T07:15:56;100442.20;;;10.10
65823;BMP180;52585;47.566;19.056;2023-02-22T07:18:21;100437.40;;;10.10
65823;BMP180;52585;47.566;19.056;2023-02-22T07:20:49;100437.60;;;10.10
65823;BMP180;52585;47.566;19.056;2023-02-22T07:23:16;100438.00;;;10.16
65823;BMP180;52585;47.566;19.056;2023-02-22T07:25:43;100440.40;;;10.20
65823;BMP180;52585;47.566;19.056;2023-02-22T07:28:09;100437.00;;;10.20
65823;BMP180;52585;47.566;19.056;2023-02-22T07:30:36;100435.60;;;10.30
65823;BMP180;52585;47.566;19.056;2023-02-22T07:33:10;100441.60;;;10.30
65823;BMP180;52585;47.566;19.056;2023-02-22T07:35:46;100437.20;;;10.30
65823;BMP180;52585;47.566;19.056;2023-02-22T07:38:14;100439.40;;;10.30
65823;BMP180;52585;47.566;19.056;2023-02-22T07:40:41;100438.80;;;10.40
65823;BMP180;52585;47.566;19.056;2023-02-22T07:43:18;100443.00;;;10.40
65823;BMP180;52585;47.566;19.056;2023-02-22T07:45:47;100445.20;;;10.40
65823;BMP180;52585;47.566;19.056;2023-02-22T07:48:16;100445.20;;;10.40
65823;BMP180;52585;47.566;19.056;2023-02-22T07:50:42;100447.60;;;10.40
65823;BMP180;52585;47.566;19.056;2023-02-22T07:53:13;100440.40;;;10.44
65823;BMP180;52585;47.566;19.056;2023-02-22T07:55:38;100440.60;;;10.50
65823;BMP180;52585;47.566;19.056;2023-02-22T07:58:07;100445.60;;;10.50
65823;BMP180;52585;47.566;19.056;2023-02-22T08:00:36;100443.00;;;10.50
65823;BMP180;52585;47.566;19.056;2023-02-22T08:03:07;100441.20;;;10.50
65823;BMP180;52585;47.566;19.056;2023-02-22T08:05:35;100439.40;;;10.60
65823;BMP180;52585;47.566;19.056;2023-02-22T08:08:03;100442.40;;;10.60
65823;BMP180;52585;47.566;19.056;2023-02-22T08:10:31;100440.20;;;10.66
65823;BMP180;52585;47.566;19.056;2023-02-22T08:12:57;100444.60;;;10.70
65823;BMP180;52585;47.566;19.056;2023-02-22T08:15:31;100447.60;;;10.70
65823;BMP180;52585;47.566;19.056;2023-02-22T08:18:00;100446.20;;;10.74
65823;BMP180;52585;47.566;19.056;2023-02-22T08:20:27;100450.00;;;10.80
65823;BMP180;52585;47.566;19.056;2023-02-22T08:22:54;100446.60;;;10.80
65823;BMP180;52585;47.566;19.056;2023-02-22T08:25:24;100441.00;;;10.80
65823;BMP180;52585;47.566;19.056;2023-02-22T08:27:51;100439.80;;;10.86
65823;BMP180;52585;47.566;19.056;2023-02-22T08:30:22;100438.80;;;10.90
65823;BMP180;52585;47.566;19.056;2023-02-22T08:32:50;100445.00;;;10.90
65823;BMP180;52585;47.566;19.056;2023-02-22T08:35:18;100441.00;;;10.90
65823;BMP180;52585;47.566;19.056;2023-02-22T08:37:49;100441.40;;;10.98
65823;BMP180;52585;47.566;19.056;2023-02-22T08:40:20;100443.80;;;11.00
65823;BMP180;52585;47.566;19.056;2023-02-22T08:42:46;100445.20;;;11.00
65823;BMP180;52585;47.566;19.056;2023-02-22T08:45:12;100445.40;;;11.00
65823;BMP180;52585;47.566;19.056;2023-02-22T08:47:39;100442.60;;;11.10
65823;BMP180;52585;47.566;19.056;2023-02-22T08:50:06;100443.60;;;11.10
65823;BMP180;52585;47.566;19.056;2023-02-22T08:52:32;100442.20;;;11.10
65823;BMP180;52585;47.566;19.056;2023-02-22T08:54:58;100438.00;;;11.18
65823;BMP180;52585;47.566;19.056;2023-02-22T08:57:23;100444.20;;;11.20
65823;BMP180;52585;47.566;19.056;2023-02-22T08:59:49;100442.00;;;11.20
65823;BMP180;52585;47.566;19.056;2023-02-22T09:02:17;100441.40;;;11.20
65823;BMP180;52585;47.566;19.056;2023-02-22T09:04:45;100443.40;;;11.20
65823;BMP180;52585;47.566;19.056;2023-02-22T09:07:12;100440.00;;;11.20
65823;BMP180;52585;47.566;19.056;2023-02-22T09:09:38;100441.60;;;11.28
65823;BMP180;52585;47.566;19.056;2023-02-22T09:12:04;100442.00;;;11.30
65823;BMP180;52585;47.566;19.056;2023-02-22T09:14:30;100450.80;;;11.30
65823;BMP180;52585;47.566;19.056;2023-02-22T09:16:56;100452.80;;;11.30
65823;BMP180;52585;47.566;19.056;2023-02-22T09:19:21;100450.00;;;11.30
65823;BMP180;52585;47.566;19.056;2023-02-22T09:21:58;100449.00;;;11.30
65823;BMP180;52585;47.566;19.056;2023-02-22T09:24:25;100449.60;;;11.30
65823;BMP180;52585;47.566;19.056;2023-02-22T09:26:50;100445.00;;;11.34
65823;BMP180;52585;47.566;19.056;2023-02-22T09:29:21;100448.20;;;11.40
65823;BMP180;52585;47.566;19.056;2023-02-22T09:31:50;100447.80;;;11.40
65823;BMP180;52585;47.566;19.056;2023-02-22T09:34:17;100446.40;;;11.40
65823;BMP180;52585;47.566;19.056;2023-02-22T09:36:46;100448.00;;;11.40
65823;BMP180;52585;47.566;19.056;2023-02-22T09:39:14;100444.40;;;11.40
65823;BMP180;52585;47.566;19.056;2023-02-22T09:48:16;100441.00;;;11.50
65823;BMP180;52585;47.566;19.056;2023-02-22T09:50:46;100437.40;;;11.50
65823;BMP180;52585;47.566;19.056;2023-02-22T09:55:51;100433.00;;;11.60
65823;BMP180;52585;47.566;19.056;2023-02-22T10:00:57;100436.80;;;11.60
65823;BMP180;52585;47.566;19.056;2023-02-22T10:06:14;100437.40;;;11.70
65823;BMP180;52585;47.566;19.056;2023-02-22T10:08:42;100432.20;;;11.76
65823;BMP180;52585;47.566;19.056;2023-02-22T10:14:32;100434.40;;;11.80
65823;BMP180;52585;47.566;19.056;2023-02-22T10:17:10;100435.20;;;11.84
65823;BMP180;52585;47.566;19.056;2023-02-22T10:20:02;100432.80;;;11.90
65823;BMP180;52585;47.566;19.056;2023-02-22T10:23:29;100433.20;;;11.90
65823;BMP180;52585;47.566;19.056;2023-02-22T10:26:24;100432.20;;;11.90
65823;BMP180;52585;47.566;19.056;2023-02-22T10:31:37;100426.60;;;11.90
65823;BMP180;52585;47.566;19.056;2023-02-22T10:34:14;100424.40;;;11.90
65823;BMP180;52585;47.566;19.056;2023-02-22T10:36:45;100424.00;;;11.90
65823;BMP180;52585;47.566;19.056;2023-02-22T10:39:32;100420.40;;;11.90
65823;BMP180;52585;47.566;19.056;2023-02-22T10:42:03;100420.80;;;11.90
65823;BMP180;52585;47.566;19.056;2023-02-22T10:44:38;100419.80;;;11.92
65823;BMP180;52585;47.566;19.056;2023-02-22T10:47:07;100416.80;;;11.94
65823;BMP180;52585;47.566;19.056;2023-02-22T10:49:45;100419.60;;;12.00
65823;BMP180;52585;47.566;19.056;2023-02-22T10:52:33;100413.80;;;12.00
65823;BMP180;52585;47.566;19.056;2023-02-22T10:55:02;100408.40;;;12.00
65823;BMP180;52585;47.566;19.056;2023-02-22T10:57:34;100405.60;;;12.06
65823;BMP180;52585;47.566;19.056;2023-02-22T11:00:34;100405.40;;;12.10
65823;BMP180;52585;47.566;19.056;2023-02-22T11:03:19;100406.00;;;12.10
65823;BMP180;52585;47.566;19.056;2023-02-22T11:05:47;100401.00;;;12.10
65823;BMP180;52585;47.566;19.056;2023-02-22T11:10:47;100398.20;;;12.20
65823;BMP180;52585;47.566;19.056;2023-02-22T11:15:54;100388.00;;;12.20
65823;BMP180;52585;47.566;19.056;2023-02-22T11:18:30;100386.20;;;12.20
65823;BMP180;52585;47.566;19.056;2023-02-22T11:21:11;100383.80;;;12.20
65823;BMP180;52585;47.566;19.056;2023-02-22T11:23:40;100387.60;;;12.20
65823;BMP180;52585;47.566;19.056;2023-02-22T11:26:14;100382.40;;;12.20
65823;BMP180;52585;47.566;19.056;2023-02-22T11:28:50;100384.00;;;12.20
65823;BMP180;52585;47.566;19.056;2023-02-22T11:31:28;100386.60;;;12.20
65823;BMP180;52585;47.566;19.056;2023-02-22T11:34:00;100384.20;;;12.20
65823;BMP180;52585;47.566;19.056;2023-02-22T11:36:34;100382.60;;;12.20
65823;BMP180;52585;47.566;19.056;2023-02-22T11:39:30;100382.60;;;12.20
65823;BMP180;52585;47.566;19.056;2023-02-22T11:42:35;100380.80;;;12.20
65823;BMP180;52585;47.566;19.056;2023-02-22T11:45:19;100380.60;;;12.20
65823;BMP180;52585;47.566;19.056;2023-02-22T11:47:54;100380.20;;;12.22
65823;BMP180;52585;47.566;19.056;2023-02-22T11:51:01;100383.80;;;12.30
65823;BMP180;52585;47.566;19.056;2023-02-22T11:53:50;100381.00;;;12.30
65823;BMP180;52585;47.566;19.056;2023-02-22T11:56:28;100380.40;;;12.30
65823;BMP180;52585;47.566;19.056;2023-02-22T11:58:59;100377.80;;;12.30
65823;BMP180;52585;47.566;19.056;2023-02-22T12:10:49;100375.40;;;12.40
65823;BMP180;52585;47.566;19.056;2023-02-22T12:17:16;100368.80;;;12.36
65823;BMP180;52585;47.566;19.056;2023-02-22T12:19:41;100369.20;;;12.38
65823;BMP180;52585;47.566;19.056;2023-02-22T12:22:21;100367.40;;;12.40
65823;BMP180;52585;47.566;19.056;2023-02-22T12:25:04;100362.80;;;12.40
65823;BMP180;52585;47.566;19.056;2023-02-22T12:27:58;100357.60;;;12.40
65823;BMP180;52585;47.566;19.056;2023-02-22T12:30:38;100359.60;;;12.40
65823;BMP180;52585;47.566;19.056;2023-02-22T12:33:14;100360.20;;;12.40
65823;BMP180;52585;47.566;19.056;2023-02-22T12:35:50;100361.60;;;12.46
65823;BMP180;52585;47.566;19.056;2023-02-22T12:38:31;100361.20;;;12.50
65823;BMP180;52585;47.566;19.056;2023-02-22T12:41:17;100359.20;;;12.50
65823;BMP180;52585;47.566;19.056;2023-02-22T12:43:52;100349.80;;;12.50
65823;BMP180;52585;47.566;19.056;2023-02-22T12:46:46;100349.00;;;12.50
65823;BMP180;52585;47.566;19.056;2023-02-22T12:49:27;100345.40;;;12.50
65823;BMP180;52585;47.566;19.056;2023-02-22T13:05:40;100325.20;;;12.50
65823;BMP180;52585;47.566;19.056;2023-02-22T13:08:29;100324.40;;;12.50
65823;BMP180;52585;47.566;19.056;2023-02-22T13:17:21;100327.40;;;12.50
65823;BMP180;52585;47.566;19.056;2023-02-22T13:26:14;100324.00;;;12.50
65823;BMP180;52585;47.566;19.056;2023-02-22T13:37:20;100326.40;;;12.52
65823;BMP180;52585;47.566;19.056;2023-02-22T13:42:47;100322.80;;;12.60
65823;BMP180;52585;47.566;19.056;2023-02-22T13:52:13;100332.60;;;12.58
65823;BMP180;52585;47.566;19.056;2023-02-22T13:54:48;100331.40;;;12.56
65823;BMP180;52585;47.566;19.056;2023-02-22T13:57:41;100330.20;;;12.52
65823;BMP180;52585;47.566;19.056;2023-02-22T14:05:51;100332.20;;;12.50
65823;BMP180;52585;47.566;19.056;2023-02-22T14:13:21;100327.40;;;12.50
65823;BMP180;52585;47.566;19.056;2023-02-22T14:18:42;100322.60;;;12.50
65823;BMP180;52585;47.566;19.056;2023-02-22T14:21:11;100321.40;;;12.50
65823;BMP180;52585;47.566;19.056;2023-02-22T14:23:40;100319.40;;;12.50
65823;BMP180;52585;47.566;19.056;2023-02-22T14:28:49;100320.80;;;12.50
65823;BMP180;52585;47.566;19.056;2023-02-22T14:31:25;100319.00;;;12.50
65823;BMP180;52585;47.566;19.056;2023-02-22T14:34:13;100321.60;;;12.50
65823;BMP180;52585;47.566;19.056;2023-02-22T14:37:03;100320.20;;;12.50
65823;BMP180;52585;47.566;19.056;2023-02-22T14:47:37;100323.80;;;12.50
65823;BMP180;52585;47.566;19.056;2023-02-22T14:50:13;100326.00;;;12.50
65823;BMP180;52585;47.566;19.056;2023-02-22T14:52:45;100325.40;;;12.46
65823;BMP180;52585;47.566;19.056;2023-02-22T14:55:21;100327.80;;;12.40
65823;BMP180;52585;47.566;19.056;2023-02-22T14:58:18;100329.20;;;12.40
65823;BMP180;52585;47.566;19.056;2023-02-22T15:00:49;100326.40;;;12.40
65823;BMP180;52585;47.566;19.056;2023-02-22T15:03:33;100323.20;;;12.40
65823;BMP180;52585;47.566;19.056;2023-02-22T15:08:41;100316.20;;;12.30
65823;BMP180;52585;47.566;19.056;2023-02-22T15:11:30;100319.60;;;12.28
65823;BMP180;52585;47.566;19.056;2023-02-22T15:13:57;100315.60;;;12.26
65823;BMP180;52585;47.566;19.056;2023-02-22T15:16:31;100310.60;;;12.20
65823;BMP180;52585;47.566;19.056;2023-02-22T15:19:03;100311.60;;;12.20
65823;BMP180;52585;47.566;19.056;2023-02-22T15:21:33;100311.40;;;12.20
65823;BMP180;52585;47.566;19.056;2023-02-22T15:24:05;100311.00;;;12.20
65823;BMP180;52585;47.566;19.056;2023-02-22T15:26:39;100312.60;;;12.20
65823;BMP180;52585;47.566;19.056;2023-02-22T15:29:18;100317.60;;;12.20
65823;BMP180;52585;47.566;19.056;2023-02-22T15:31:45;100317.80;;;12.10
65823;BMP180;52585;47.566;19.056;2023-02-22T15:34:23;100310.20;;;12.10
65823;BMP180;52585;47.566;19.056;2023-02-22T15:36:53;100314.20;;;12.10
65823;BMP180;52585;47.566;19.056;2023-02-22T15:39:29;100311.40;;;12.10
65823;BMP180;52585;47.566;19.056;2023-02-22T15:42:16;100308.40;;;12.10
65823;BMP180;52585;47.566;19.056;2023-02-22T15:44:52;100305.00;;;12.10
65823;BMP180;52585;47.566;19.056;2023-02-22T15:47:29;100307.40;;;12.06
65823;BMP180;52585;47.566;19.056;2023-02-22T15:53:07;100312.20;;;12.02
65823;BMP180;52585;47.566;19.056;2023-02-22T15:55:47;100307.40;;;12.00
65823;BMP180;52585;47.566;19.056;2023-02-22T16:00:43;100301.00;;;12.00
65823;BMP180;52585;47.566;19.056;2023-02-22T16:03:14;100305.40;;;12.00
65823;BMP180;52585;47.566;19.056;2023-02-22T16:05:52;100306.60;;;12.00
65823;BMP180;52585;47.566;19.056;2023-02-22T16:08:35;100307.40;;;11.96
65823;BMP180;52585;47.566;19.056;2023-02-22T16:11:10;100308.20;;;11.94
65823;BMP180;52585;47.566;19.056;2023-02-22T16:13:40;100309.00;;;11.94
65823;BMP180;52585;47.566;19.056;2023-02-22T16:18:41;100309.00;;;11.90
65823;BMP180;52585;47.566;19.056;2023-02-22T16:21:12;100314.20;;;11.90
65823;BMP180;52585;47.566;19.056;2023-02-22T16:23:50;100314.80;;;11.94
65823;BMP180;52585;47.566;19.056;2023-02-22T16:26:31;100313.60;;;12.00
65823;BMP180;52585;47.566;19.056;2023-02-22T16:29:02;100319.60;;;11.92
65823;BMP180;52585;47.566;19.056;2023-02-22T16:31:33;100323.60;;;11.98
65823;BMP180;52585;47.566;19.056;2023-02-22T16:34:03;100324.20;;;12.00
65823;BMP180;52585;47.566;19.056;2023-02-22T16:36:47;100324.00;;;11.90
65823;BMP180;52585;47.566;19.056;2023-02-22T16:39:27;100330.60;;;11.92
65823;BMP180;52585;47.566;19.056;2023-02-22T16:42:00;100335.60;;;11.90
65823;BMP180;52585;47.566;19.056;2023-02-22T16:44:27;100334.20;;;11.90
65823;BMP180;52585;47.566;19.056;2023-02-22T16:46:57;100335.80;;;11.90
65823;BMP180;52585;47.566;19.056;2023-02-22T16:49:24;100334.40;;;11.90
65823;BMP180;52585;47.566;19.056;2023-02-22T16:52:05;100340.40;;;11.90